Time;durP1;ratioP1;P1;durP2;ratioP2;P2;SDS_P1;SDS_P2;PMS_P1;PMS_P2;Temp;Humidity;BMP_temperature;BMP_pressure;BME280_temperature;BME280_humidity;BME280_pressure;Samples;Min_cycle;Max_cycle;Signal;HPM_P1;HPM_P2
2021/08/27 00:01:41;;;;;;;10.33;3.93;;;12.00;99.90;;;;;;5070615;28;20648;-79
2021/08/27 00:04:09;;;;;;;4.50;3.83;;;12.10;99.90;;;;;;5071704;28;20624;-79
2021/08/27 00:06:36;;;;;;;4.00;3.60;;;12.20;99.90;;;;;;5064419;28;20711;-79
2021/08/27 00:09:04;;;;;;;5.17;3.57;;;12.30;99.90;;;;;;5054913;28;20623;-80
2021/08/27 00:11:31;;;;;;;5.30;3.10;;;12.30;99.90;;;;;;5051059;28;20603;-79
2021/08/27 00:13:58;;;;;;;6.10;4.37;;;12.30;99.90;;;;;;5050833;28;20608;-79
2021/08/27 00:16:25;;;;;;;3.70;3.30;;;12.40;99.90;;;;;;5050387;28;20618;-79
2021/08/27 00:18:52;;;;;;;5.27;3.63;;;12.40;99.90;;;;;;5064676;28;21206;-79
2021/08/27 00:21:19;;;;;;;4.33;3.00;;;12.50;99.90;;;;;;5064427;28;20647;-79
2021/08/27 00:23:46;;;;;;;4.63;3.80;;;12.50;99.90;;;;;;5044923;28;20651;-80
2021/08/27 00:26:14;;;;;;;3.13;2.83;;;12.60;99.90;;;;;;5050884;28;20612;-79
2021/08/27 00:28:41;;;;;;;2.77;2.57;;;12.60;99.90;;;;;;5062336;28;20709;-79
2021/08/27 00:31:08;;;;;;;5.30;3.50;;;12.60;99.90;;;;;;5070920;28;20628;-79
2021/08/27 00:33:35;;;;;;;4.33;3.53;;;12.70;99.90;;;;;;5068086;28;20620;-79
2021/08/27 00:36:02;;;;;;;3.60;3.30;;;12.70;99.90;;;;;;5071196;28;20989;-79
2021/08/27 00:38:29;;;;;;;3.93;3.60;;;12.80;99.90;;;;;;5060611;28;20627;-79
2021/08/27 00:40:55;;;;;;;4.50;3.20;;;12.80;99.90;;;;;;5063644;28;20610;-79
2021/08/27 00:43:24;;;;;;;5.07;3.40;;;12.80;99.90;;;;;;5055953;28;21189;-79
2021/08/27 00:45:51;;;;;;;11.03;3.73;;;12.90;99.90;;;;;;5051936;28;21173;-79
2021/08/27 00:48:18;;;;;;;5.23;3.53;;;12.90;99.90;;;;;;5059314;28;20639;-79
2021/08/27 00:50:47;;;;;;;3.47;3.17;;;12.90;99.90;;;;;;5050756;28;21183;-79
2021/08/27 00:53:15;;;;;;;4.70;3.87;;;12.90;99.90;;;;;;5054775;28;20721;-79
2021/08/27 00:55:42;;;;;;;3.93;3.23;;;12.90;99.90;;;;;;5050800;28;20608;-79
2021/08/27 00:58:09;;;;;;;5.43;3.30;;;13.00;99.90;;;;;;5056468;28;20621;-79
2021/08/27 01:00:37;;;;;;;3.30;3.07;;;13.00;99.90;;;;;;5069292;28;20631;-79
2021/08/27 01:03:08;;;;;;;3.77;3.30;;;13.00;99.90;;;;;;5069794;28;21223;-79
2021/08/27 01:05:40;;;;;;;4.17;3.47;;;13.00;99.90;;;;;;5068466;28;21212;-79
2021/08/27 01:08:15;;;;;;;5.60;3.97;;;13.00;99.90;;;;;;5061601;28;20648;-78
2021/08/27 01:10:49;;;;;;;3.90;3.60;;;13.10;99.90;;;;;;5069762;28;20635;-79
2021/08/27 01:13:22;;;;;;;4.87;3.00;;;13.10;99.90;;;;;;5069573;28;20641;-79
2021/08/27 01:16:01;;;;;;;6.47;3.53;;;13.10;99.90;;;;;;5068556;28;20732;-79
2021/08/27 01:18:35;;;;;;;3.80;2.90;;;13.10;99.90;;;;;;5060751;28;20677;-79
2021/08/27 01:21:50;;;;;;;4.50;3.60;;;13.20;99.90;;;;;;5051075;28;20688;-79
2021/08/27 01:24:21;;;;;;;3.10;2.70;;;13.20;99.90;;;;;;5048669;28;20699;-79
2021/08/27 01:26:54;;;;;;;5.00;3.70;;;13.20;99.90;;;;;;5060861;28;20626;-79
2021/08/27 01:29:29;;;;;;;4.53;3.20;;;13.20;99.90;;;;;;5055961;28;20632;-78
2021/08/27 01:32:04;;;;;;;3.00;2.70;;;13.20;99.90;;;;;;5069464;28;20637;-79
2021/08/27 01:34:39;;;;;;;5.73;3.57;;;13.30;99.90;;;;;;5048430;28;20707;-79
2021/08/27 01:37:10;;;;;;;3.87;3.50;;;13.20;99.90;;;;;;5050714;28;20637;-79
2021/08/27 01:39:41;;;;;;;3.93;3.40;;;13.20;99.90;;;;;;5052290;28;20626;-79
2021/08/27 01:42:12;;;;;;;3.67;3.20;;;13.20;99.90;;;;;;5063601;28;21264;-79
2021/08/27 01:44:43;;;;;;;3.37;3.17;;;13.20;99.90;;;;;;5069883;28;20737;-79
2021/08/27 01:47:16;;;;;;;3.17;2.87;;;13.20;99.90;;;;;;5049654;28;20970;-79
2021/08/27 01:49:48;;;;;;;5.83;3.50;;;13.20;99.90;;;;;;5050405;28;21193;-79
2021/08/27 01:52:19;;;;;;;4.83;3.20;;;13.20;99.90;;;;;;5056474;28;20630;-79
2021/08/27 01:54:49;;;;;;;7.83;3.73;;;13.20;99.90;;;;;;5050138;28;20633;-79
2021/08/27 01:57:18;;;;;;;4.20;3.53;;;13.30;99.90;;;;;;5066192;28;20622;-78
2021/08/27 01:59:47;;;;;;;3.60;3.30;;;13.20;99.90;;;;;;5059893;28;23140;-79
2021/08/27 02:02:19;;;;;;;3.53;3.23;;;13.20;99.90;;;;;;5048894;28;20668;-78
2021/08/27 02:04:52;;;;;;;6.17;4.20;;;13.20;99.90;;;;;;5049640;28;20629;-79
2021/08/27 02:07:21;;;;;;;5.07;3.77;;;13.40;99.90;;;;;;5065533;28;20976;-79
2021/08/27 02:09:51;;;;;;;8.20;4.33;;;13.30;99.90;;;;;;5069907;28;21160;-78
2021/08/27 02:12:20;;;;;;;8.10;3.60;;;13.40;99.90;;;;;;5071601;28;20981;-78
2021/08/27 02:14:51;;;;;;;4.40;3.57;;;13.40;99.90;;;;;;5073715;28;20624;-79
2021/08/27 02:17:19;;;;;;;5.87;4.77;;;13.40;99.90;;;;;;5071614;28;20670;-78
2021/08/27 02:19:52;;;;;;;4.17;3.67;;;13.40;99.90;;;;;;5073252;28;20661;-79
2021/08/27 02:22:23;;;;;;;5.20;4.00;;;13.40;99.90;;;;;;5072756;28;20668;-79
2021/08/27 02:24:59;;;;;;;5.10;3.63;;;13.40;99.90;;;;;;5073533;28;20671;-79
2021/08/27 02:27:28;;;;;;;5.83;3.97;;;13.40;99.90;;;;;;5070995;28;20660;-79
2021/08/27 02:29:58;;;;;;;5.33;4.63;;;13.50;99.90;;;;;;5072487;28;20694;-78
2021/08/27 02:32:27;;;;;;;4.30;4.00;;;13.40;99.90;;;;;;5071265;28;20656;-79
2021/08/27 02:35:00;;;;;;;4.30;3.90;;;13.40;99.90;;;;;;5053877;28;21413;-79
2021/08/27 02:37:32;;;;;;;4.93;4.43;;;13.40;99.90;;;;;;5063781;28;20625;-79
2021/08/27 02:40:01;;;;;;;4.90;4.50;;;13.40;99.90;;;;;;5066663;28;20636;-79
2021/08/27 02:42:31;;;;;;;4.70;4.30;;;13.40;99.90;;;;;;5052735;28;20672;-78
2021/08/27 02:45:06;;;;;;;6.67;4.87;;;13.30;99.90;;;;;;5048511;28;20648;-78
2021/08/27 02:47:34;;;;;;;5.13;4.40;;;13.30;99.90;;;;;;5070227;28;20664;-78
2021/08/27 02:50:09;;;;;;;5.37;3.80;;;13.40;99.90;;;;;;5071234;28;20629;-78
2021/08/27 02:52:43;;;;;;;4.93;4.47;;;13.30;99.90;;;;;;5059735;28;20980;-79
2021/08/27 02:55:15;;;;;;;4.07;3.77;;;13.30;99.90;;;;;;5052772;28;21032;-78
2021/08/27 02:57:50;;;;;;;5.47;4.50;;;13.40;99.90;;;;;;5071643;28;20632;-78
2021/08/27 03:00:23;;;;;;;9.60;4.70;;;13.40;99.90;;;;;;5072747;28;20630;-79
2021/08/27 03:02:52;;;;;;;5.63;4.70;;;13.40;99.90;;;;;;5067743;28;20653;-79
2021/08/27 03:05:24;;;;;;;5.17;4.67;;;13.40;99.90;;;;;;5065440;28;20621;-79
2021/08/27 03:07:57;;;;;;;5.43;4.53;;;13.40;99.90;;;;;;5068277;28;20620;-79
2021/08/27 03:10:28;;;;;;;5.73;5.23;;;13.40;99.90;;;;;;5052615;28;20618;-79
2021/08/27 03:13:00;;;;;;;7.07;5.90;;;13.40;99.90;;;;;;5054252;28;20719;-79
2021/08/27 03:15:30;;;;;;;7.37;5.90;;;13.40;99.90;;;;;;5071071;28;20643;-79
2021/08/27 03:18:04;;;;;;;7.43;6.43;;;13.40;99.90;;;;;;5072532;28;21203;-79
2021/08/27 03:20:43;;;;;;;6.77;6.00;;;13.30;99.90;;;;;;5072614;28;21270;-79
2021/08/27 03:23:13;;;;;;;5.30;4.80;;;13.30;99.90;;;;;;5066647;28;20696;-79
2021/08/27 03:25:45;;;;;;;8.93;5.90;;;13.40;99.90;;;;;;5052185;28;20615;-79
2021/08/27 03:28:15;;;;;;;8.00;5.80;;;13.50;99.90;;;;;;5052169;28;20630;-78
2021/08/27 03:30:46;;;;;;;9.60;8.70;;;13.40;99.90;;;;;;5052492;28;21198;-78
2021/08/27 03:33:13;;;;;;;14.27;8.47;;;13.30;99.90;;;;;;5063210;28;20618;-78
2021/08/27 03:35:42;;;;;;;9.20;7.97;;;13.40;99.90;;;;;;5053344;28;20610;-78
2021/08/27 03:38:10;;;;;;;10.23;7.80;;;13.30;99.90;;;;;;5052348;28;20646;-79
2021/08/27 03:40:38;;;;;;;10.50;8.00;;;13.30;99.90;;;;;;5051573;28;20672;-78
2021/08/27 03:43:07;;;;;;;9.80;8.80;;;13.20;99.90;;;;;;5064380;28;20759;-78
2021/08/27 03:45:34;;;;;;;8.90;7.97;;;13.30;99.90;;;;;;5053167;28;21256;-78
2021/08/27 03:48:02;;;;;;;10.70;7.70;;;13.30;99.90;;;;;;5052124;28;20613;-79
2021/08/27 03:50:30;;;;;;;10.67;8.10;;;13.30;99.90;;;;;;5052183;28;20630;-79
2021/08/27 03:52:59;;;;;;;11.83;9.63;;;13.30;99.90;;;;;;5056709;28;20666;-79
2021/08/27 03:55:28;;;;;;;11.00;9.10;;;13.30;99.90;;;;;;5066254;28;21029;-79
2021/08/27 03:57:57;;;;;;;10.67;9.57;;;13.30;99.90;;;;;;5071223;28;20686;-79
2021/08/27 04:00:26;;;;;;;8.87;7.47;;;13.30;99.90;;;;;;5071326;28;20736;-79
2021/08/27 04:02:54;;;;;;;8.37;7.63;;;13.20;99.90;;;;;;5064966;28;21240;-79
2021/08/27 04:05:22;;;;;;;10.00;7.87;;;13.20;99.90;;;;;;5051458;28;20605;-79
2021/08/27 04:07:51;;;;;;;8.70;7.90;;;13.20;99.90;;;;;;5068346;28;20613;-79
2021/08/27 04:10:21;;;;;;;9.87;8.87;;;13.20;99.90;;;;;;5071347;28;20616;-79
2021/08/27 04:12:48;;;;;;;9.67;8.70;;;13.10;99.90;;;;;;5061468;28;20679;-79
2021/08/27 04:15:22;;;;;;;8.70;7.93;;;13.20;99.90;;;;;;5069999;28;20653;-79
2021/08/27 04:17:49;;;;;;;10.03;6.77;;;13.10;99.90;;;;;;5066505;28;20645;-78
2021/08/27 04:20:16;;;;;;;11.67;6.87;;;13.00;99.90;;;;;;5066762;28;21238;-79
2021/08/27 04:22:43;;;;;;;7.07;6.47;;;13.00;99.90;;;;;;5062523;28;20769;-79
2021/08/27 04:25:11;;;;;;;7.57;6.60;;;13.00;99.90;;;;;;5066658;28;20668;-79
2021/08/27 04:27:39;;;;;;;6.17;5.67;;;12.90;99.90;;;;;;5050625;28;20633;-79
2021/08/27 04:30:07;;;;;;;8.33;6.87;;;12.90;99.90;;;;;;5050327;28;21257;-78
2021/08/27 04:32:34;;;;;;;14.30;9.83;;;12.90;99.90;;;;;;5053358;28;20619;-78
2021/08/27 04:35:04;;;;;;;7.80;7.10;;;12.90;99.90;;;;;;5050959;28;21252;-79
2021/08/27 04:37:31;;;;;;;10.00;5.83;;;12.90;99.90;;;;;;5053591;28;20664;-79
2021/08/27 04:39:58;;;;;;;6.67;6.07;;;12.90;99.90;;;;;;5062011;28;20739;-79
2021/08/27 04:42:24;;;;;;;11.23;5.63;;;12.90;99.90;;;;;;5050265;28;21512;-79
2021/08/27 04:44:53;;;;;;;10.27;6.30;;;12.90;99.90;;;;;;5050809;28;20745;-79
2021/08/27 04:47:20;;;;;;;7.70;6.93;;;13.00;99.90;;;;;;5051099;28;20639;-79
2021/08/27 04:49:47;;;;;;;6.33;5.73;;;12.90;99.90;;;;;;5071105;28;20637;-79
2021/08/27 04:52:14;;;;;;;7.23;6.53;;;12.90;99.90;;;;;;5059933;28;20634;-79
2021/08/27 04:54:41;;;;;;;6.13;5.53;;;13.00;99.90;;;;;;5068579;28;20661;-79
2021/08/27 04:57:07;;;;;;;6.80;6.20;;;13.00;99.90;;;;;;5069529;28;20646;-79
2021/08/27 04:59:34;;;;;;;6.60;5.33;;;13.00;99.90;;;;;;5051082;28;20685;-79
2021/08/27 05:02:03;;;;;;;7.63;6.87;;;13.10;99.90;;;;;;5049772;28;20668;-80
2021/08/27 05:04:30;;;;;;;10.20;7.90;;;13.10;99.90;;;;;;5067369;28;20621;-79
2021/08/27 05:06:57;;;;;;;8.60;7.70;;;13.00;99.90;;;;;;5070367;28;20628;-79
2021/08/27 05:09:24;;;;;;;9.93;8.40;;;13.00;99.90;;;;;;5062802;28;20743;-78
2021/08/27 05:11:53;;;;;;;10.17;9.03;;;13.00;99.90;;;;;;5059052;28;20647;-79
2021/08/27 05:14:20;;;;;;;10.73;8.57;;;12.90;99.90;;;;;;5053324;28;21022;-79
2021/08/27 05:16:47;;;;;;;9.23;8.33;;;12.90;99.90;;;;;;5052162;28;21098;-79
2021/08/27 05:19:16;;;;;;;9.63;8.63;;;13.00;99.90;;;;;;5055888;28;20644;-78
2021/08/27 05:21:42;;;;;;;9.83;8.83;;;13.10;99.90;;;;;;5060402;28;21038;-78
2021/08/27 05:24:09;;;;;;;14.57;8.47;;;13.10;99.90;;;;;;5055888;28;21277;-78
2021/08/27 05:26:36;;;;;;;10.23;9.13;;;12.90;99.90;;;;;;5061133;28;20667;-78
2021/08/27 05:29:05;;;;;;;13.67;10.93;;;12.90;99.90;;;;;;5053864;28;20665;-79
2021/08/27 05:31:34;;;;;;;14.13;11.50;;;13.00;99.90;;;;;;5057245;28;20679;-79
2021/08/27 05:34:01;;;;;;;13.60;11.80;;;12.90;99.90;;;;;;5054478;28;21025;-79
2021/08/27 05:36:29;;;;;;;16.10;11.70;;;13.00;99.90;;;;;;5057722;28;20955;-79
2021/08/27 05:39:07;;;;;;;12.40;10.67;;;13.10;99.90;;;;;;5054762;28;20652;-79
2021/08/27 05:41:34;;;;;;;15.70;11.53;;;13.10;99.90;;;;;;5058571;28;20722;-79
2021/08/27 05:44:05;;;;;;;13.67;11.27;;;13.10;99.90;;;;;;5056405;28;20772;-79
2021/08/27 05:46:31;;;;;;;15.00;9.93;;;13.10;99.90;;;;;;5054884;28;20699;-79
2021/08/27 05:48:58;;;;;;;11.83;10.03;;;13.30;99.90;;;;;;5064987;28;21018;-80
2021/08/27 05:51:25;;;;;;;12.10;10.93;;;13.40;99.90;;;;;;5052442;28;20820;-79
2021/08/27 05:53:53;;;;;;;13.67;10.40;;;13.40;99.90;;;;;;5060131;28;20958;-79
2021/08/27 05:56:20;;;;;;;14.60;9.70;;;13.40;99.90;;;;;;5061180;28;20640;-79
2021/08/27 05:58:48;;;;;;;13.10;10.93;;;13.40;99.90;;;;;;5065020;28;20621;-79
2021/08/27 06:01:15;;;;;;;12.87;9.70;;;13.40;99.90;;;;;;5059989;28;21092;-80
2021/08/27 06:03:42;;;;;;;9.57;8.70;;;13.50;99.90;;;;;;5058509;28;20770;-79
2021/08/27 06:06:09;;;;;;;11.57;10.37;;;13.40;99.90;;;;;;5057940;28;21095;-79
2021/08/27 06:08:36;;;;;;;9.07;8.17;;;13.40;99.90;;;;;;5056820;28;20614;-79
2021/08/27 06:11:05;;;;;;;11.10;8.70;;;13.50;99.90;;;;;;5063865;28;20624;-79
2021/08/27 06:13:32;;;;;;;9.13;8.23;;;13.40;99.90;;;;;;5058026;28;20743;-79
2021/08/27 06:16:00;;;;;;;9.70;8.80;;;13.30;99.90;;;;;;5062348;28;20625;-79
2021/08/27 06:18:27;;;;;;;9.43;8.43;;;13.50;99.90;;;;;;5056039;28;20634;-80
2021/08/27 06:20:54;;;;;;;7.90;7.20;;;13.50;99.90;;;;;;5051058;28;20636;-80
2021/08/27 06:23:22;;;;;;;8.60;7.80;;;13.60;99.90;;;;;;5060752;28;20776;-80
2021/08/27 06:25:50;;;;;;;8.40;7.50;;;13.60;99.90;;;;;;5054977;28;20634;-80
2021/08/27 06:28:18;;;;;;;8.07;7.20;;;13.60;99.90;;;;;;5055163;28;20633;-80
2021/08/27 06:30:49;;;;;;;7.73;7.03;;;13.60;99.90;;;;;;5059793;28;20617;-80
2021/08/27 06:33:16;;;;;;;7.87;6.60;;;13.50;99.90;;;;;;5056608;28;20690;-79
2021/08/27 06:35:45;;;;;;;7.70;7.10;;;13.60;99.90;;;;;;5059615;28;20633;-80
2021/08/27 06:38:23;;;;;;;7.37;6.23;;;13.60;99.90;;;;;;5062381;28;20674;-80
2021/08/27 06:40:52;;;;;;;8.73;6.43;;;13.40;99.90;;;;;;5061574;28;20960;-80
2021/08/27 06:43:26;;;;;;;6.57;5.97;;;13.40;99.90;;;;;;5062248;28;20665;-80
2021/08/27 06:45:55;;;;;;;8.83;6.80;;;13.70;99.90;;;;;;5054990;28;20728;-80
2021/08/27 06:48:24;;;;;;;7.30;6.60;;;13.80;99.90;;;;;;5063380;28;20974;-79
2021/08/27 06:50:53;;;;;;;6.80;5.87;;;13.80;99.90;;;;;;5056971;28;20691;-80
2021/08/27 06:53:20;;;;;;;6.40;5.60;;;13.80;99.90;;;;;;5055761;28;20646;-79
2021/08/27 06:55:47;;;;;;;7.07;6.20;;;14.00;99.90;;;;;;5059010;28;21285;-79
2021/08/27 06:58:14;;;;;;;9.67;5.83;;;14.00;99.90;;;;;;5065487;28;20761;-80
2021/08/27 07:00:42;;;;;;;5.90;5.40;;;14.10;99.90;;;;;;5058211;28;21198;-79
2021/08/27 07:03:09;;;;;;;7.43;5.73;;;14.10;99.90;;;;;;5050617;28;21136;-79
2021/08/27 07:05:37;;;;;;;6.03;5.27;;;14.10;99.90;;;;;;5059963;28;20668;-78
2021/08/27 07:08:04;;;;;;;7.00;5.50;;;14.20;99.90;;;;;;5054906;28;20626;-78
2021/08/27 07:10:31;;;;;;;6.60;6.00;;;14.10;99.90;;;;;;5059536;28;20627;-79
2021/08/27 07:12:58;;;;;;;12.47;5.80;;;14.20;99.90;;;;;;5062066;28;20622;-79
2021/08/27 07:15:26;;;;;;;5.97;5.00;;;14.20;99.90;;;;;;5061552;28;20699;-79
2021/08/27 07:17:56;;;;;;;8.43;5.23;;;14.20;99.90;;;;;;5069290;28;20644;-78
2021/08/27 07:20:23;;;;;;;5.50;4.90;;;14.00;99.90;;;;;;5058855;28;20634;-79
2021/08/27 07:22:50;;;;;;;6.20;3.83;;;14.10;99.90;;;;;;5069289;28;20625;-79
2021/08/27 07:25:17;;;;;;;4.43;4.03;;;14.20;99.90;;;;;;5063853;28;20691;-79
2021/08/27 07:27:44;;;;;;;6.13;4.50;;;14.20;99.90;;;;;;5068053;28;20666;-79
2021/08/27 07:30:13;;;;;;;7.13;4.90;;;14.30;99.90;;;;;;5071733;28;20621;-79
2021/08/27 07:32:40;;;;;;;7.27;4.87;;;14.40;99.90;;;;;;5065172;28;20629;-79
2021/08/27 07:35:09;;;;;;;4.70;4.40;;;14.40;99.90;;;;;;5068474;28;20629;-80
2021/08/27 07:37:38;;;;;;;4.93;4.53;;;14.70;99.90;;;;;;5067536;28;20618;-79
2021/08/27 07:40:06;;;;;;;3.93;3.63;;;14.80;99.90;;;;;;5057804;28;20626;-79
2021/08/27 07:42:34;;;;;;;5.77;4.20;;;14.90;99.90;;;;;;5071163;28;21170;-79
2021/08/27 07:45:02;;;;;;;3.87;3.47;;;15.10;99.90;;;;;;5072062;28;20660;-79
2021/08/27 07:47:29;;;;;;;4.20;3.73;;;15.00;99.90;;;;;;5067169;28;20641;-79
2021/08/27 07:49:56;;;;;;;3.93;3.50;;;14.90;99.90;;;;;;5065606;28;21569;-78
2021/08/27 07:52:24;;;;;;;4.00;3.40;;;14.80;99.70;;;;;;5050923;28;20721;-78
2021/08/27 07:54:51;;;;;;;3.77;3.47;;;14.80;99.90;;;;;;5051208;28;20626;-78
2021/08/27 07:57:18;;;;;;;3.80;3.40;;;14.80;99.90;;;;;;5061942;28;21025;-79
2021/08/27 07:59:45;;;;;;;6.00;3.47;;;14.90;99.90;;;;;;5060598;28;20618;-79
2021/08/27 08:02:14;;;;;;;3.13;2.50;;;14.90;99.40;;;;;;5061688;28;20622;-78
2021/08/27 08:04:41;;;;;;;2.90;2.70;;;14.60;98.20;;;;;;5062654;28;20649;-78
2021/08/27 08:07:08;;;;;;;3.37;2.10;;;14.70;98.90;;;;;;5065023;28;21090;-78
2021/08/27 08:09:37;;;;;;;3.17;2.70;;;14.60;98.40;;;;;;5070110;28;20626;-78
2021/08/27 08:12:04;;;;;;;2.50;2.30;;;14.50;96.70;;;;;;5070435;28;20627;-78
2021/08/27 08:14:31;;;;;;;2.57;2.37;;;14.50;97.70;;;;;;5071096;28;20609;-79
2021/08/27 08:16:58;;;;;;;3.00;2.43;;;14.70;98.60;;;;;;5071172;28;20663;-79
2021/08/27 08:19:25;;;;;;;2.20;2.00;;;14.80;98.30;;;;;;5070852;28;20613;-78
2021/08/27 08:21:52;;;;;;;2.83;2.00;;;14.90;98.50;;;;;;5065876;28;21071;-78
2021/08/27 08:24:19;;;;;;;2.57;2.20;;;15.00;97.70;;;;;;5069881;28;20695;-78
2021/08/27 08:26:48;;;;;;;3.30;2.70;;;15.00;96.70;;;;;;5059420;28;20658;-78
2021/08/27 08:29:20;;;;;;;2.07;1.97;;;15.00;96.60;;;;;;5066656;28;20669;-79
2021/08/27 08:31:47;;;;;;;2.03;1.93;;;15.10;96.00;;;;;;5056555;28;20651;-79
2021/08/27 08:34:14;;;;;;;3.13;2.13;;;15.30;96.70;;;;;;5059087;28;20641;-79
2021/08/27 08:37:04;;;;;;;2.10;2.00;;;15.50;95.80;;;;;;5061464;28;20687;-78
2021/08/27 08:39:31;;;;;;;2.47;2.30;;;15.80;95.50;;;;;;5060944;28;20623;-78
2021/08/27 08:42:05;;;;;;;2.00;1.90;;;16.00;94.30;;;;;;5060725;28;21182;-79
2021/08/27 08:44:43;;;;;;;2.47;2.17;;;16.00;95.10;;;;;;5062167;28;20654;-79
2021/08/27 08:47:12;;;;;;;2.07;1.97;;;15.80;94.90;;;;;;5055606;28;20661;-78
2021/08/27 08:49:41;;;;;;;2.93;2.30;;;15.50;95.10;;;;;;5058426;28;21174;-79
2021/08/27 08:52:09;;;;;;;2.60;2.30;;;15.70;95.80;;;;;;5055698;28;20734;-79
2021/08/27 08:54:36;;;;;;;2.37;2.17;;;15.90;96.10;;;;;;5067413;28;20625;-79
2021/08/27 08:57:05;;;;;;;2.43;1.90;;;15.80;94.80;;;;;;5056040;28;20724;-79
2021/08/27 08:59:35;;;;;;;2.03;1.90;;;15.70;94.50;;;;;;5063220;28;20641;-79
2021/08/27 09:02:04;;;;;;;2.50;2.03;;;15.50;93.90;;;;;;5055065;28;20634;-79
2021/08/27 09:04:31;;;;;;;1.77;1.67;;;15.40;94.90;;;;;;5049555;28;20867;-80
2021/08/27 09:06:58;;;;;;;4.23;2.10;;;15.20;94.80;;;;;;5060502;28;20645;-79
2021/08/27 09:09:33;;;;;;;3.23;2.17;;;15.30;95.30;;;;;;5057820;28;20653;-79
2021/08/27 09:12:01;;;;;;;2.50;2.30;;;15.70;94.30;;;;;;5053464;28;21283;-80
2021/08/27 09:14:30;;;;;;;3.30;1.70;;;16.20;94.90;;;;;;5059786;28;21036;-79
2021/08/27 09:17:05;;;;;;;1.83;1.73;;;16.30;91.90;;;;;;5060242;28;20634;-79
2021/08/27 09:19:51;;;;;;;3.50;2.20;;;16.30;92.90;;;;;;5062675;28;20691;-79
2021/08/27 09:22:18;;;;;;;2.90;2.10;;;16.10;93.10;;;;;;5050641;28;21081;-78
2021/08/27 09:24:45;;;;;;;2.60;1.83;;;15.80;92.90;;;;;;5058384;28;20677;-79
2021/08/27 09:27:21;;;;;;;2.13;1.90;;;15.70;93.40;;;;;;5054834;28;20672;-79
2021/08/27 09:30:16;;;;;;;3.00;2.30;;;15.60;93.80;;;;;;5055009;28;20774;-80
2021/08/27 09:32:43;;;;;;;4.10;2.73;;;15.70;94.60;;;;;;5057680;28;20642;-80
2021/08/27 09:35:15;;;;;;;2.33;2.23;;;15.70;94.10;;;;;;5059786;28;21174;-79
2021/08/27 09:37:45;;;;;;;1.97;1.77;;;15.40;93.30;;;;;;5048844;28;21286;-80
2021/08/27 09:40:14;;;;;;;4.43;2.10;;;15.40;94.30;;;;;;5057861;28;20641;-79
2021/08/27 09:42:43;;;;;;;2.63;2.43;;;15.70;94.70;;;;;;5059333;28;20628;-80
2021/08/27 09:45:12;;;;;;;2.93;1.63;;;15.70;94.60;;;;;;5047767;28;20651;-80
2021/08/27 09:47:55;;;;;;;2.17;1.97;;;15.80;95.00;;;;;;5057202;28;20618;-78
2021/08/27 09:50:24;;;;;;;3.50;2.40;;;15.80;95.10;;;;;;5055493;28;20630;-79
2021/08/27 09:52:54;;;;;;;2.00;1.90;;;15.60;94.50;;;;;;5057688;28;20633;-79
2021/08/27 09:55:22;;;;;;;2.43;2.10;;;15.50;94.00;;;;;;5063372;28;20622;-79
2021/08/27 09:57:49;;;;;;;3.73;2.77;;;15.50;94.20;;;;;;5058998;28;20767;-79
2021/08/27 10:00:24;;;;;;;2.53;2.33;;;15.50;94.30;;;;;;5059359;28;21031;-81
2021/08/27 10:03:12;;;;;;;2.67;2.27;;;15.60;93.90;;;;;;5054065;28;20653;-81
2021/08/27 10:05:41;;;;;;;3.63;2.33;;;15.60;93.20;;;;;;5056614;28;20666;-80
2021/08/27 10:08:17;;;;;;;3.67;2.63;;;15.60;93.40;;;;;;5059415;28;21040;-79
2021/08/27 10:10:44;;;;;;;2.60;2.40;;;15.40;93.70;;;;;;5055895;28;20684;-79
2021/08/27 10:13:12;;;;;;;2.90;2.60;;;15.40;93.70;;;;;;5057926;28;21069;-79
2021/08/27 10:15:44;;;;;;;2.93;2.73;;;15.40;93.80;;;;;;5052805;28;20638;-80
2021/08/27 10:18:12;;;;;;;4.07;3.77;;;15.40;93.80;;;;;;5052909;28;20649;-79
2021/08/27 10:20:40;;;;;;;3.67;3.37;;;15.40;93.60;;;;;;5052959;28;20951;-80
2021/08/27 10:23:19;;;;;;;3.73;3.47;;;15.50;94.50;;;;;;5055771;28;21166;-80
2021/08/27 10:25:48;;;;;;;3.90;3.60;;;15.60;93.50;;;;;;5053465;28;20657;-80
2021/08/27 10:28:16;;;;;;;4.30;4.00;;;15.90;94.30;;;;;;5059902;28;20634;-79
2021/08/27 10:30:53;;;;;;;3.47;3.27;;;16.30;92.90;;;;;;5056446;28;21402;-80
2021/08/27 10:34:07;;;;;;;3.70;3.40;;;16.60;93.50;;;;;;5056579;28;20713;-80
2021/08/27 10:36:52;;;;;;;3.20;2.90;;;16.80;93.00;;;;;;5037730;28;20747;-80
2021/08/27 10:39:42;;;;;;;4.00;3.60;;;16.70;91.90;;;;;;5052193;28;20660;-80
2021/08/27 10:42:30;;;;;;;3.37;3.00;;;16.50;92.10;;;;;;5052426;28;20702;-80
2021/08/27 10:44:57;;;;;;;3.33;2.93;;;16.20;91.50;;;;;;5052496;28;20650;-79
2021/08/27 10:47:25;;;;;;;4.17;3.80;;;16.20;92.30;;;;;;5053317;28;20695;-80
2021/08/27 10:50:00;;;;;;;5.10;4.63;;;16.40;92.90;;;;;;5064061;28;20631;-80
2021/08/27 10:52:30;;;;;;;4.27;3.83;;;16.40;91.90;;;;;;5052720;28;20632;-80
2021/08/27 10:55:21;;;;;;;4.30;2.90;;;16.40;92.30;;;;;;5056694;28;20651;-79
2021/08/27 10:57:51;;;;;;;2.97;2.77;;;16.30;91.90;;;;;;5053648;28;20988;-80
2021/08/27 11:00:37;;;;;;;5.00;3.50;;;16.30;91.90;;;;;;5056383;28;20690;-80
2021/08/27 11:03:06;;;;;;;2.67;2.47;;;16.10;92.20;;;;;;5057569;28;21169;-79
2021/08/27 11:05:37;;;;;;;2.90;2.70;;;16.20;92.50;;;;;;5059601;28;20670;-80
2021/08/27 11:08:05;;;;;;;2.90;2.70;;;16.20;92.70;;;;;;5064561;28;20695;-80
2021/08/27 11:10:35;;;;;;;2.87;2.67;;;16.10;92.70;;;;;;5056828;28;21186;-80
2021/08/27 11:13:07;;;;;;;2.70;2.43;;;16.30;93.60;;;;;;5061890;28;20616;-80
2021/08/27 11:15:36;;;;;;;2.60;2.40;;;16.40;92.70;;;;;;5059667;28;20629;-80
2021/08/27 11:18:24;;;;;;;2.90;2.40;;;16.60;92.50;;;;;;5057748;28;20753;-80
2021/08/27 11:20:54;;;;;;;2.63;2.43;;;17.30;91.70;;;;;;5060486;28;20621;-81
2021/08/27 11:23:22;;;;;;;4.23;2.80;;;17.70;90.20;;;;;;5057194;28;20636;-81
2021/08/27 11:26:01;;;;;;;1.90;1.80;;;17.60;87.70;;;;;;5059130;28;20716;-80
2021/08/27 11:28:29;;;;;;;2.60;2.40;;;17.50;90.70;;;;;;5061546;28;20613;-80
2021/08/27 11:31:11;;;;;;;3.70;2.57;;;17.10;90.10;;;;;;5059796;28;21171;-80
2021/08/27 11:33:53;;;;;;;2.43;2.10;;;16.70;90.30;;;;;;5057087;28;20624;-80
2021/08/27 11:36:22;;;;;;;3.17;2.30;;;16.60;90.40;;;;;;5053194;28;20674;-79
2021/08/27 11:38:55;;;;;;;2.90;2.60;;;16.80;91.00;;;;;;5056296;28;20636;-79
2021/08/27 11:41:24;;;;;;;2.30;2.20;;;17.00;90.40;;;;;;5062125;28;20619;-79
2021/08/27 11:44:11;;;;;;;3.83;2.60;;;16.90;91.10;;;;;;5051440;28;20734;-82
2021/08/27 11:46:51;;;;;;;2.77;2.57;;;16.90;90.40;;;;;;5059873;28;20644;-81
2021/08/27 11:49:34;;;;;;;3.07;2.53;;;17.30;90.70;;;;;;5057739;28;20643;-81
2021/08/27 11:52:12;;;;;;;5.90;2.60;;;17.90;90.00;;;;;;5058317;28;20622;-82
2021/08/27 11:54:39;;;;;;;3.77;2.10;;;18.80;90.80;;;;;;5059258;28;21168;-80
2021/08/27 11:57:14;;;;;;;2.47;2.20;;;19.30;87.70;;;;;;5060354;28;20638;-80
2021/08/27 11:59:45;;;;;;;2.33;2.13;;;19.20;87.40;;;;;;5060534;28;20673;-80
2021/08/27 12:02:20;;;;;;;2.03;1.80;;;18.50;84.70;;;;;;5054628;28;20666;-78
2021/08/27 12:04:57;;;;;;;1.90;1.80;;;18.20;86.10;;;;;;5057790;28;20722;-78
2021/08/27 12:07:27;;;;;;;1.83;1.73;;;18.20;88.50;;;;;;5064732;28;21230;-79
2021/08/27 12:10:05;;;;;;;2.80;1.80;;;18.30;85.10;;;;;;5068315;28;20699;-79
2021/08/27 12:12:35;;;;;;;1.60;1.50;;;19.40;84.00;;;;;;5069466;28;20705;-79
2021/08/27 12:15:04;;;;;;;3.10;1.77;;;20.40;78.90;;;;;;5049254;28;20643;-79
2021/08/27 12:17:32;;;;;;;2.90;1.70;;;19.70;76.60;;;;;;5050549;28;20680;-79
2021/08/27 12:20:02;;;;;;;1.90;1.80;;;19.20;78.10;;;;;;5050611;28;20614;-79
2021/08/27 12:22:32;;;;;;;2.27;2.07;;;18.80;80.10;;;;;;5045002;28;20731;-79
2021/08/27 12:25:00;;;;;;;2.30;2.00;;;18.70;79.40;;;;;;5050108;28;21956;-79
2021/08/27 12:27:27;;;;;;;2.40;2.20;;;19.20;78.50;;;;;;5067506;28;20620;-79
2021/08/27 12:30:09;;;;;;;3.80;1.67;;;19.30;80.30;;;;;;5071178;28;20683;-79
2021/08/27 12:32:37;;;;;;;2.37;1.80;;;19.20;79.80;;;;;;5056951;28;21181;-79
2021/08/27 12:35:08;;;;;;;3.43;1.93;;;19.50;83.90;;;;;;5070663;28;20617;-79
2021/08/27 12:37:36;;;;;;;3.67;1.90;;;20.00;80.20;;;;;;5068151;28;20617;-79
2021/08/27 12:40:07;;;;;;;1.80;1.70;;;20.30;80.90;;;;;;5063999;28;21253;-79
2021/08/27 12:42:34;;;;;;;2.40;1.67;;;21.00;79.70;;;;;;5069907;28;20647;-79
2021/08/27 12:45:04;;;;;;;2.40;1.73;;;21.80;76.00;;;;;;5070863;28;20711;-80
2021/08/27 12:47:36;;;;;;;5.67;1.90;;;22.00;74.80;;;;;;5070843;28;20701;-79
2021/08/27 12:50:08;;;;;;;2.63;1.90;;;23.10;72.40;;;;;;5069037;28;20661;-80
2021/08/27 12:52:36;;;;;;;2.37;1.80;;;23.90;71.20;;;;;;5054355;28;20623;-80
2021/08/27 12:55:03;;;;;;;1.90;1.80;;;25.00;65.10;;;;;;5059003;28;20978;-80
2021/08/27 12:57:30;;;;;;;1.30;1.20;;;25.10;63.00;;;;;;5050820;28;20676;-80
2021/08/27 13:00:01;;;;;;;1.77;1.40;;;24.70;60.40;;;;;;5060216;28;20661;-80
2021/08/27 13:02:34;;;;;;;2.17;2.07;;;24.40;63.50;;;;;;5070413;28;20643;-80